createdAt,value
2018-09-06T00:01:23.775Z,76.70
2018-09-06T00:03:58.982Z,77.30
2018-09-06T00:06:34.475Z,77.70
2018-09-06T00:09:10.255Z,77.80
2018-09-06T00:11:46.012Z,77.50
2018-09-06T00:14:20.799Z,77.70
2018-09-06T00:16:56.126Z,77.40
2018-09-06T00:19:31.115Z,77.60
2018-09-06T00:22:06.913Z,78.20
2018-09-06T00:24:42.217Z,78.00
2018-09-06T00:27:17.058Z,77.60
2018-09-06T00:29:52.005Z,77.80
2018-09-06T00:32:26.925Z,77.70
2018-09-06T00:35:01.759Z,77.30
2018-09-06T00:37:36.667Z,77.10
2018-09-06T00:40:11.799Z,77.40
2018-09-06T00:42:46.547Z,77.70
2018-09-06T00:45:21.360Z,77.70
2018-09-06T00:47:56.187Z,78.30
2018-09-06T00:50:36.243Z,79.20
2018-09-06T00:53:11.034Z,79.20
2018-09-06T00:55:45.873Z,78.50
2018-09-06T00:58:20.898Z,78.60
2018-09-06T01:00:55.781Z,79.50
2018-09-06T01:03:30.679Z,79.10
2018-09-06T01:06:05.809Z,79.10
2018-09-06T01:08:40.712Z,79.60
2018-09-06T01:11:15.972Z,79.90
2018-09-06T01:13:51.097Z,80.00
2018-09-06T01:16:26.024Z,79.80
2018-09-06T01:19:00.820Z,80.40
2018-09-06T01:21:35.558Z,80.80
2018-09-06T01:24:10.270Z,80.20
2018-09-06T01:26:45.066Z,79.90
2018-09-06T01:29:20.203Z,80.30
2018-09-06T01:31:54.876Z,80.30
2018-09-06T01:34:30.008Z,80.70
2018-09-06T01:37:08.918Z,80.90
2018-09-06T01:39:43.822Z,80.40
2018-09-06T01:42:18.665Z,80.70
2018-09-06T01:44:53.436Z,80.90
2018-09-06T01:47:28.268Z,80.40
2018-09-06T01:50:03.144Z,80.50
2018-09-06T01:52:38.006Z,80.60
2018-09-06T01:55:12.825Z,80.60
2018-09-06T01:57:47.847Z,80.50
2018-09-06T02:00:22.973Z,80.70
2018-09-06T02:02:57.787Z,82.10
2018-09-06T02:05:36.994Z,81.40
2018-09-06T02:08:11.765Z,81.10
2018-09-06T02:10:46.758Z,80.80
2018-09-06T02:13:21.737Z,80.60
2018-09-06T02:15:57.028Z,80.70
2018-09-06T02:18:32.887Z,80.50
2018-09-06T02:21:07.803Z,80.30
2018-09-06T02:23:42.574Z,80.70
2018-09-06T02:26:17.286Z,81.50
2018-09-06T02:28:52.556Z,80.70
2018-09-06T02:31:27.297Z,80.50
2018-09-06T02:34:01.973Z,80.70
2018-09-06T02:36:36.924Z,80.80
2018-09-06T02:39:12.418Z,81.10
2018-09-06T02:41:47.074Z,81.20
2018-09-06T02:44:22.153Z,82.00
2018-09-06T02:46:57.160Z,81.60
2018-09-06T02:49:37.331Z,81.80
2018-09-06T02:52:12.272Z,81.60
2018-09-06T02:54:47.394Z,82.30
2018-09-06T02:57:23.471Z,82.60
2018-09-06T02:59:58.494Z,82.70
2018-09-06T03:02:33.264Z,82.50
2018-09-06T03:05:08.040Z,82.80
2018-09-06T03:07:42.839Z,83.00
2018-09-06T03:10:18.057Z,83.90
2018-09-06T03:12:53.475Z,83.30
2018-09-06T03:15:28.287Z,83.10
2018-09-06T03:18:10.195Z,83.10
2018-09-06T03:20:45.027Z,83.60
2018-09-06T03:23:19.964Z,83.40
2018-09-06T03:25:54.890Z,84.00
2018-09-06T03:28:29.978Z,83.90
2018-09-06T03:31:04.785Z,83.50
2018-09-06T03:33:39.868Z,83.80
2018-09-06T03:36:15.625Z,83.80
2018-09-06T03:38:51.085Z,83.70
2018-09-06T03:41:25.894Z,83.60
2018-09-06T03:44:00.870Z,83.30
2018-09-06T03:46:35.668Z,83.40
2018-09-06T03:49:10.478Z,83.50
2018-09-06T03:51:45.406Z,84.20
2018-09-06T03:54:20.321Z,84.50
2018-09-06T03:56:55.314Z,84.90
2018-09-06T03:59:30.673Z,85.00
2018-09-06T04:02:05.434Z,84.80
2018-09-06T04:04:47.025Z,84.90
2018-09-06T04:07:21.730Z,84.90
2018-09-06T04:10:00.086Z,84.80
2018-09-06T04:12:35.238Z,84.80
2018-09-06T04:15:10.078Z,84.80
2018-09-06T04:17:45.101Z,84.70
2018-09-06T04:20:19.850Z,85.10
2018-09-06T04:22:54.685Z,85.30
2018-09-06T04:25:29.497Z,85.40
2018-09-06T04:28:04.694Z,85.50
2018-09-06T04:30:39.783Z,85.10
2018-09-06T04:33:14.750Z,86.10
2018-09-06T04:35:49.429Z,86.20
2018-09-06T04:38:25.024Z,86.20
2018-09-06T04:41:00.027Z,86.30
2018-09-06T04:43:34.885Z,85.80
2018-09-06T04:46:10.302Z,85.80
2018-09-06T04:48:45.039Z,85.80
2018-09-06T04:51:19.861Z,86.00
2018-09-06T04:53:54.666Z,86.80
2018-09-06T04:56:30.339Z,87.30
2018-09-06T04:59:05.125Z,86.70
2018-09-06T05:01:40.481Z,86.50
2018-09-06T05:04:15.260Z,86.80
2018-09-06T05:06:50.260Z,86.90
2018-09-06T05:09:25.111Z,86.80
2018-09-06T05:11:59.965Z,86.70
2018-09-06T05:14:34.660Z,87.40
2018-09-06T05:17:09.488Z,87.10
2018-09-06T05:19:44.391Z,87.00
2018-09-06T05:22:19.783Z,87.10
2018-09-06T05:24:54.530Z,87.50
2018-09-06T05:27:29.405Z,87.50
2018-09-06T05:30:04.193Z,87.50
2018-09-06T05:32:38.914Z,87.80
2018-09-06T05:35:13.918Z,88.40
2018-09-06T05:37:48.891Z,88.50
2018-09-06T05:40:23.783Z,88.70
2018-09-06T05:42:58.610Z,88.80
2018-09-06T05:45:33.448Z,88.90
2018-09-06T05:48:08.158Z,89.40
2018-09-06T05:50:43.346Z,89.50
2018-09-06T05:53:18.037Z,90.00
2018-09-06T05:55:52.906Z,89.80
2018-09-06T05:58:27.594Z,89.60
2018-09-06T06:01:02.318Z,89.50
2018-09-06T06:03:37.165Z,89.60
2018-09-06T06:06:12.812Z,89.80
2018-09-06T06:08:49.805Z,89.50
2018-09-06T06:11:24.624Z,89.80
2018-09-06T06:13:59.906Z,89.70
2018-09-06T06:16:34.706Z,89.70
2018-09-06T06:19:09.494Z,89.90
2018-09-06T06:21:44.424Z,90.10
2018-09-06T06:24:19.251Z,90.10
2018-09-06T06:26:54.183Z,90.30
2018-09-06T06:29:28.962Z,90.40
2018-09-06T06:32:03.825Z,90.60
2018-09-06T06:34:38.998Z,90.70
2018-09-06T06:37:14.786Z,90.60
2018-09-06T06:39:49.816Z,90.50
2018-09-06T06:42:24.736Z,90.60
2018-09-06T06:44:59.533Z,90.40
2018-09-06T06:47:34.858Z,90.70
2018-09-06T06:50:10.453Z,90.40
2018-09-06T06:52:45.599Z,90.50
2018-09-06T06:55:20.216Z,90.20
2018-09-06T06:57:55.967Z,90.10
2018-09-06T07:00:35.420Z,90.10
2018-09-06T07:03:12.597Z,89.80
2018-09-06T07:05:47.691Z,89.40
2018-09-06T07:08:22.457Z,89.50
2018-09-06T07:10:57.153Z,89.60
2018-09-06T07:13:31.809Z,88.20
2018-09-06T07:16:06.534Z,87.60
2018-09-06T07:18:41.406Z,86.70
2018-09-06T07:21:16.369Z,86.50
2018-09-06T07:23:51.285Z,86.20
2018-09-06T07:26:26.654Z,86.20
2018-09-06T07:29:01.965Z,85.40
2018-09-06T07:31:37.413Z,85.30
2018-09-06T07:34:12.741Z,84.20
2018-09-06T07:36:48.187Z,83.90
2018-09-06T07:39:24.041Z,83.40
2018-09-06T07:41:59.378Z,84.20
2018-09-06T07:44:34.651Z,84.40
2018-09-06T07:47:10.165Z,83.40
2018-09-06T07:49:45.615Z,83.40
2018-09-06T07:52:21.110Z,83.00
2018-09-06T07:54:57.412Z,82.50
2018-09-06T07:57:32.784Z,81.80
2018-09-06T08:00:08.507Z,80.40
2018-09-06T08:02:44.326Z,79.80
2018-09-06T08:05:19.518Z,78.70
2018-09-06T08:07:55.256Z,78.10
2018-09-06T08:10:30.641Z,77.80
2018-09-06T08:13:06.147Z,76.50
2018-09-06T08:15:41.473Z,77.30
2018-09-06T08:18:16.827Z,76.10
2018-09-06T08:20:52.881Z,76.10
2018-09-06T08:23:28.363Z,74.70
2018-09-06T08:26:03.751Z,75.30
2018-09-06T08:28:39.163Z,74.10
2018-09-06T08:31:15.026Z,73.00
2018-09-06T08:33:51.210Z,72.60
2018-09-06T08:36:27.129Z,70.80
2018-09-06T08:39:02.725Z,68.70
2018-09-06T08:41:38.763Z,65.70
2018-09-06T08:44:14.157Z,62.90
2018-09-06T08:46:49.553Z,62.90
2018-09-06T08:49:25.089Z,60.80
2018-09-06T08:52:00.719Z,60.00
2018-09-06T08:54:36.679Z,58.70
2018-09-06T08:57:13.029Z,57.90
2018-09-06T08:59:48.485Z,55.60
2018-09-06T09:02:24.222Z,55.50
2018-09-06T09:05:00.021Z,53.40
2018-09-06T09:07:35.463Z,53.50
2018-09-06T09:10:10.926Z,54.70
2018-09-06T09:12:46.415Z,53.80
2018-09-06T09:15:21.905Z,55.60
2018-09-06T09:17:57.348Z,56.70
2018-09-06T09:20:33.386Z,55.80
2018-09-06T09:23:09.032Z,56.90
2018-09-06T09:25:44.858Z,56.50
2018-09-06T09:28:20.127Z,55.90
2018-09-06T09:30:55.457Z,55.30
2018-09-06T09:33:31.030Z,51.90
2018-09-06T09:36:06.429Z,50.40
2018-09-06T09:38:41.716Z,49.80
2018-09-06T09:41:17.113Z,50.40
2018-09-06T09:43:52.237Z,51.40
2018-09-06T09:49:02.393Z,53.50
2018-09-06T09:51:37.873Z,52.40
2018-09-06T09:54:13.262Z,52.50
2018-09-06T09:56:48.518Z,48.70
2018-09-06T09:59:23.629Z,46.20
2018-09-06T10:02:04.178Z,44.60
2018-09-06T10:04:43.495Z,45.30
2018-09-06T10:07:24.518Z,45.00
2018-09-06T10:09:59.648Z,42.90
2018-09-06T10:12:34.701Z,41.50
2018-09-06T10:15:09.936Z,42.80
2018-09-06T10:17:45.581Z,42.60
2018-09-06T10:20:20.655Z,41.10
2018-09-06T10:22:55.739Z,40.10
2018-09-06T10:25:31.004Z,40.10
2018-09-06T10:28:06.246Z,40.70
2018-09-06T10:30:41.605Z,41.60
2018-09-06T10:33:16.531Z,44.10
2018-09-06T10:35:51.870Z,43.80
2018-09-06T10:38:27.883Z,42.20
2018-09-06T10:41:03.057Z,40.40
2018-09-06T10:43:38.813Z,40.40
2018-09-06T10:46:14.247Z,40.80
2018-09-06T10:48:49.469Z,42.20
2018-09-06T10:51:24.494Z,41.20
2018-09-06T10:53:59.681Z,38.20
2018-09-06T10:56:34.875Z,40.90
2018-09-06T10:59:10.414Z,43.00
2018-09-06T11:01:46.213Z,42.80
2018-09-06T11:04:21.284Z,43.00
2018-09-06T11:06:56.758Z,42.00
2018-09-06T11:09:31.878Z,41.20
2018-09-06T11:12:07.005Z,38.40
2018-09-06T11:14:42.198Z,37.10
2018-09-06T11:17:17.302Z,37.10
2018-09-06T11:19:52.384Z,38.80
2018-09-06T11:22:27.564Z,40.20
2018-09-06T11:25:02.803Z,41.40
2018-09-06T11:27:37.929Z,41.00
2018-09-06T11:30:13.555Z,40.50
2018-09-06T11:32:48.623Z,38.00
2018-09-06T11:35:25.205Z,36.30
2018-09-06T11:38:00.460Z,36.60
2018-09-06T11:40:35.706Z,35.70
2018-09-06T11:43:10.912Z,35.50
2018-09-06T11:45:46.083Z,37.30
2018-09-06T11:48:21.163Z,37.70
2018-09-06T11:50:56.301Z,36.70
2018-09-06T11:53:32.106Z,37.60
2018-09-06T11:56:07.990Z,38.70
2018-09-06T11:58:43.073Z,39.90
2018-09-06T12:01:18.194Z,42.10
2018-09-06T12:03:53.170Z,41.90
2018-09-06T12:06:28.288Z,42.40
2018-09-06T12:09:04.399Z,42.70
2018-09-06T12:11:39.934Z,43.50
2018-09-06T12:14:15.576Z,43.40
2018-09-06T12:16:51.045Z,44.00
2018-09-06T12:19:26.469Z,44.60
2018-09-06T12:22:02.445Z,46.10
2018-09-06T12:24:37.797Z,47.30
2018-09-06T12:27:19.840Z,49.70
2018-09-06T12:29:55.257Z,47.20
2018-09-06T12:32:30.870Z,46.40
2018-09-06T12:35:06.857Z,43.80
2018-09-06T12:37:42.344Z,45.00
2018-09-06T12:40:17.941Z,45.50
2018-09-06T12:42:53.370Z,46.10
2018-09-06T12:45:29.034Z,46.90
2018-09-06T12:48:04.975Z,47.00
2018-09-06T12:50:40.677Z,46.40
2018-09-06T12:53:16.271Z,45.50
2018-09-06T12:55:52.078Z,44.50
2018-09-06T12:58:27.361Z,44.30
2018-09-06T13:01:02.389Z,43.20
2018-09-06T13:03:37.435Z,41.40
2018-09-06T13:06:12.581Z,41.70
2018-09-06T13:08:47.713Z,41.70
2018-09-06T13:11:22.942Z,42.80
2018-09-06T13:13:58.268Z,44.00
2018-09-06T13:16:33.373Z,43.90
2018-09-06T13:19:08.566Z,42.80
2018-09-06T13:21:43.815Z,42.60
2018-09-06T13:24:18.924Z,42.70
2018-09-06T13:26:54.029Z,42.90
2018-09-06T13:29:28.977Z,43.80
2018-09-06T13:32:04.111Z,43.80
2018-09-06T13:34:39.303Z,42.10
2018-09-06T13:37:14.485Z,42.00
2018-09-06T13:39:49.613Z,40.00
2018-09-06T13:42:25.513Z,39.30
2018-09-06T13:45:00.552Z,39.30
2018-09-06T13:47:35.785Z,40.90
2018-09-06T13:50:10.998Z,40.20
2018-09-06T13:52:46.059Z,41.30
2018-09-06T13:55:22.478Z,43.50
2018-09-06T13:57:57.561Z,42.20
2018-09-06T14:00:32.609Z,42.80
2018-09-06T14:03:08.133Z,42.40
2018-09-06T14:05:44.150Z,43.00
2018-09-06T14:08:19.642Z,44.50
2018-09-06T14:10:55.247Z,46.00
2018-09-06T14:13:30.632Z,46.90
2018-09-06T14:16:06.205Z,46.00
2018-09-06T14:18:41.462Z,44.90
2018-09-06T14:21:16.759Z,45.10
2018-09-06T14:23:51.881Z,44.90
2018-09-06T14:26:27.059Z,46.00
2018-09-06T14:29:02.072Z,44.00
2018-09-06T14:31:37.239Z,44.80
2018-09-06T14:34:13.368Z,44.80
2018-09-06T14:36:49.004Z,42.40
2018-09-06T14:39:24.319Z,43.30
2018-09-06T14:41:59.658Z,44.60
2018-09-06T14:44:35.254Z,44.80
2018-09-06T14:47:10.833Z,43.50
2018-09-06T14:49:46.598Z,44.00
2018-09-06T14:52:22.302Z,45.20
2018-09-06T14:54:57.659Z,44.20
2018-09-06T14:57:33.137Z,43.50
2018-09-06T15:00:09.398Z,43.40
2018-09-06T15:02:44.835Z,43.80
2018-09-06T15:05:20.495Z,45.20
2018-09-06T15:07:56.017Z,46.60
2018-09-06T15:10:31.675Z,46.70
2018-09-06T15:13:07.697Z,47.30
2018-09-06T15:15:43.129Z,47.00
2018-09-06T15:18:18.576Z,47.60
2018-09-06T15:20:54.052Z,48.90
2018-09-06T15:23:29.350Z,50.10
2018-09-06T15:26:05.183Z,50.50
2018-09-06T15:28:40.762Z,50.90
2018-09-06T15:31:16.134Z,50.70
2018-09-06T15:33:52.091Z,51.10
2018-09-06T15:36:27.421Z,51.40
2018-09-06T15:39:04.173Z,52.70
2018-09-06T15:41:43.247Z,52.10
2018-09-06T15:44:18.635Z,52.60
2018-09-06T15:46:54.062Z,52.40
2018-09-06T15:49:29.723Z,52.20
2018-09-06T15:52:05.283Z,51.90
2018-09-06T15:54:40.923Z,52.10
2018-09-06T15:57:16.409Z,52.40
2018-09-06T15:59:51.820Z,52.10
2018-09-06T16:02:27.149Z,52.20
2018-09-06T16:05:03.083Z,52.80
2018-09-06T16:07:38.555Z,53.40
2018-09-06T16:10:14.158Z,52.70
2018-09-06T16:12:49.723Z,53.00
2018-09-06T16:15:25.168Z,52.90
2018-09-06T16:18:00.630Z,52.90
2018-09-06T16:20:36.026Z,52.80
2018-09-06T16:23:11.329Z,53.20
2018-09-06T16:25:46.782Z,53.90
2018-09-06T16:28:22.063Z,54.70
2018-09-06T16:30:57.505Z,55.10
2018-09-06T16:33:32.739Z,56.60
2018-09-06T16:36:08.272Z,56.80
2018-09-06T16:38:44.034Z,57.00
2018-09-06T16:41:19.378Z,57.70
2018-09-06T16:43:54.720Z,58.50
2018-09-06T16:46:30.088Z,59.60
2018-09-06T16:49:06.209Z,59.70
2018-09-06T16:51:42.010Z,59.90
2018-09-06T16:54:17.497Z,59.80
2018-09-06T16:56:53.121Z,60.90
2018-09-06T16:59:29.503Z,61.20
2018-09-06T17:02:05.060Z,60.70
2018-09-06T17:04:40.364Z,61.20
2018-09-06T17:07:16.374Z,62.80
2018-09-06T17:09:51.767Z,63.40
2018-09-06T17:12:27.154Z,63.70
2018-09-06T17:15:03.541Z,64.60
2018-09-06T17:17:39.269Z,64.80
2018-09-06T17:20:14.821Z,63.70
2018-09-06T17:22:50.664Z,64.70
2018-09-06T17:25:26.700Z,64.70
2018-09-06T17:28:02.703Z,65.00
2018-09-06T17:30:38.706Z,63.90
2018-09-06T17:33:14.371Z,64.00
2018-09-06T17:35:50.253Z,63.50
2018-09-06T17:38:26.006Z,63.00
2018-09-06T17:41:01.620Z,62.60
2018-09-06T17:43:37.124Z,61.90
2018-09-06T17:46:12.831Z,61.90
2018-09-06T17:48:48.188Z,62.40
2018-09-06T17:51:23.657Z,64.40
2018-09-06T17:53:59.390Z,66.30
2018-09-06T17:56:35.440Z,68.00
2018-09-06T17:59:11.058Z,68.50
2018-09-06T18:01:47.043Z,69.50
2018-09-06T18:04:22.735Z,70.60
2018-09-06T18:06:58.070Z,70.70
2018-09-06T18:09:33.666Z,71.20
2018-09-06T18:12:09.531Z,71.90
2018-09-06T18:14:44.964Z,74.20
2018-09-06T18:17:20.293Z,75.20
2018-09-06T18:19:55.958Z,75.80
2018-09-06T18:22:31.990Z,75.00
2018-09-06T18:25:07.570Z,76.00
2018-09-06T18:27:43.799Z,76.90
2018-09-06T18:30:20.190Z,78.20
2018-09-06T18:32:55.607Z,78.00
2018-09-06T18:35:31.123Z,79.10
2018-09-06T18:38:06.386Z,78.20
2018-09-06T18:40:42.054Z,78.70
2018-09-06T18:43:17.427Z,78.00
2018-09-06T18:45:52.864Z,79.90
2018-09-06T18:48:28.211Z,81.20
2018-09-06T18:51:03.661Z,82.20
2018-09-06T18:53:45.712Z,81.70
2018-09-06T18:56:21.145Z,82.50
2018-09-06T18:58:57.279Z,82.40
2018-09-06T19:01:33.341Z,81.90
2018-09-06T19:04:08.808Z,82.60
2018-09-06T19:06:44.136Z,82.40
2018-09-06T19:09:19.645Z,83.40
2018-09-06T19:11:55.493Z,83.50
2018-09-06T19:14:31.041Z,83.80
2018-09-06T19:17:06.520Z,83.00
2018-09-06T19:19:41.763Z,81.70
2018-09-06T19:22:17.241Z,81.10
2018-09-06T19:24:52.637Z,81.10
2018-09-06T19:27:28.274Z,81.70
2018-09-06T19:30:04.017Z,82.70
2018-09-06T19:32:39.544Z,83.50
2018-09-06T19:35:15.000Z,83.90
2018-09-06T19:37:50.483Z,83.40
2018-09-06T19:40:25.827Z,83.80
2018-09-06T19:43:01.233Z,83.90
2018-09-06T19:45:37.007Z,83.40
2018-09-06T19:48:12.456Z,84.30
2018-09-06T19:50:47.960Z,85.20
2018-09-06T19:53:23.500Z,84.70
2018-09-06T19:55:58.903Z,85.20
2018-09-06T19:58:34.476Z,85.40
2018-09-06T20:01:09.832Z,85.40
2018-09-06T20:03:45.360Z,85.00
2018-09-06T20:06:20.716Z,84.90
2018-09-06T20:08:56.291Z,86.00
2018-09-06T20:11:31.796Z,86.60
2018-09-06T20:14:07.557Z,86.50
2018-09-06T20:16:42.843Z,86.50
2018-09-06T20:19:18.538Z,87.00
2018-09-06T20:21:53.973Z,87.40
2018-09-06T20:24:29.444Z,87.60
2018-09-06T20:27:04.914Z,87.60
2018-09-06T20:29:41.973Z,87.30
2018-09-06T20:32:17.558Z,87.90
2018-09-06T20:34:53.110Z,87.00
2018-09-06T20:37:28.342Z,87.40
2018-09-06T20:40:04.249Z,87.50
2018-09-06T20:42:39.496Z,88.20
2018-09-06T20:45:14.864Z,89.50
2018-09-06T20:47:50.131Z,89.40
2018-09-06T20:50:25.673Z,89.40
2018-09-06T20:53:01.044Z,89.20
2018-09-06T20:55:36.535Z,88.60
2018-09-06T20:58:11.973Z,89.00
2018-09-06T21:00:48.111Z,88.90
2018-09-06T21:03:23.635Z,88.40
2018-09-06T21:05:59.200Z,88.00
2018-09-06T21:08:34.915Z,88.80
2018-09-06T21:11:10.703Z,88.10
2018-09-06T21:13:47.054Z,87.60
2018-09-06T21:16:22.619Z,88.80
2018-09-06T21:18:58.181Z,88.40
2018-09-06T21:21:33.686Z,88.50
2018-09-06T21:24:09.103Z,87.30
2018-09-06T21:26:43.890Z,87.90
2018-09-06T21:29:18.821Z,88.30
2018-09-06T21:31:54.323Z,88.50
2018-09-06T21:34:29.523Z,87.90
2018-09-06T21:37:04.918Z,88.00
2018-09-06T21:39:39.796Z,87.40
2018-09-06T21:42:14.592Z,87.20
2018-09-06T21:44:49.615Z,86.70
2018-09-06T21:47:24.663Z,87.80
2018-09-06T21:50:01.044Z,88.10
2018-09-06T21:52:35.881Z,88.60
2018-09-06T21:55:10.861Z,88.40
2018-09-06T21:57:45.678Z,88.40
2018-09-06T22:00:20.557Z,88.70
2018-09-06T22:03:01.264Z,88.90
2018-09-06T22:05:36.577Z,87.90
2018-09-06T22:08:11.482Z,88.40
2018-09-06T22:10:46.989Z,88.70
2018-09-06T22:13:22.322Z,89.30
2018-09-06T22:15:57.810Z,88.50
2018-09-06T22:18:32.849Z,88.10
2018-09-06T22:21:07.587Z,88.50
2018-09-06T22:23:42.889Z,87.90
2018-09-06T22:26:18.263Z,87.80
2018-09-06T22:28:52.964Z,87.60
2018-09-06T22:31:27.854Z,88.20
2018-09-06T22:34:02.765Z,88.00
2018-09-06T22:36:37.680Z,87.90
2018-09-06T22:39:13.111Z,88.70
2018-09-06T22:41:48.157Z,88.30
2018-09-06T22:44:23.012Z,88.40
2018-09-06T22:46:58.163Z,88.80
2018-09-06T22:49:32.863Z,88.70
2018-09-06T22:52:07.851Z,89.20
2018-09-06T22:54:42.675Z,89.40
2018-09-06T22:57:17.699Z,88.80
2018-09-06T22:59:52.638Z,89.50
2018-09-06T23:02:32.794Z,89.70
2018-09-06T23:05:07.728Z,89.50
2018-09-06T23:07:42.498Z,88.80
2018-09-06T23:10:17.490Z,88.60
2018-09-06T23:12:52.778Z,89.20
2018-09-06T23:15:28.054Z,89.80
2018-09-06T23:18:02.977Z,89.90
2018-09-06T23:20:37.747Z,89.70
2018-09-06T23:23:12.941Z,89.70
2018-09-06T23:25:47.694Z,90.00
2018-09-06T23:28:22.479Z,90.20
2018-09-06T23:30:57.426Z,90.10
2018-09-06T23:33:32.258Z,90.10
2018-09-06T23:36:07.089Z,90.20
2018-09-06T23:38:41.832Z,90.10
2018-09-06T23:41:16.758Z,90.00
2018-09-06T23:43:51.533Z,90.00
2018-09-06T23:46:26.301Z,90.00
2018-09-06T23:49:01.230Z,90.00
2018-09-06T23:51:36.076Z,90.00
2018-09-06T23:54:11.043Z,89.90
2018-09-06T23:56:45.809Z,90.30
2018-09-06T23:59:20.568Z,90.20
